Time;durP1;ratioP1;P1;durP2;ratioP2;P2;SDS_P1;SDS_P2;PMS_P1;PMS_P2;Temp;Humidity;BMP_temperature;BMP_pressure;BME280_temperature;BME280_humidity;BME280_pressure;Samples;Min_cycle;Max_cycle;Signal;HPM_P1;HPM_P2
2022/01/04 00:00:41;;;;;;;2.87;1.60;;;8.80;99.50;;;;;;5017689;28;20425;-76
2022/01/04 00:03:07;;;;;;;1.87;0.93;;;8.80;99.50;;;;;;5016984;28;20421;-77
2022/01/04 00:05:33;;;;;;;1.97;0.77;;;8.80;99.60;;;;;;5012069;28;20414;-76
2022/01/04 00:07:59;;;;;;;1.20;0.80;;;8.90;99.50;;;;;;5013298;28;20186;-77
2022/01/04 00:10:28;;;;;;;1.60;0.80;;;8.80;99.60;;;;;;5014030;28;20285;-77
2022/01/04 00:15:42;;;;;;;5.00;1.67;;;8.80;99.70;;;;;;5013014;28;20406;-76
2022/01/04 00:18:07;;;;;;;1.90;0.80;;;8.80;99.80;;;;;;5013081;28;20441;-76
2022/01/04 00:20:33;;;;;;;2.67;1.20;;;8.80;99.90;;;;;;5011553;28;20426;-76
2022/01/04 00:22:59;;;;;;;1.97;0.77;;;8.90;99.80;;;;;;5013436;28;20245;-76
2022/01/04 00:25:24;;;;;;;3.10;1.20;;;8.90;99.90;;;;;;5012627;28;20179;-76
2022/01/04 00:27:50;;;;;;;1.80;0.83;;;8.90;99.90;;;;;;5012751;28;20191;-77
2022/01/04 00:30:16;;;;;;;1.53;0.73;;;8.80;99.60;;;;;;5010485;28;20562;-76
2022/01/04 00:32:42;;;;;;;2.07;1.00;;;8.80;99.60;;;;;;5012015;28;20163;-77
2022/01/04 00:35:08;;;;;;;2.00;0.87;;;8.80;99.70;;;;;;5011256;28;20805;-78
2022/01/04 00:37:34;;;;;;;1.30;0.90;;;8.80;99.60;;;;;;5011944;28;20171;-77
2022/01/04 00:39:59;;;;;;;2.00;0.83;;;8.80;99.70;;;;;;5012285;28;20461;-77
2022/01/04 00:42:25;;;;;;;1.50;0.93;;;8.80;99.60;;;;;;5012169;28;20174;-76
2022/01/04 00:44:51;;;;;;;1.23;0.80;;;8.80;99.60;;;;;;5026965;28;20190;-76
2022/01/04 00:47:19;;;;;;;2.33;0.80;;;8.80;99.30;;;;;;5011549;28;20294;-76
2022/01/04 00:49:45;;;;;;;1.50;0.80;;;8.70;99.40;;;;;;5027150;28;20171;-76
2022/01/04 00:52:16;;;;;;;1.30;0.80;;;8.70;99.50;;;;;;5011755;28;20918;-76
2022/01/04 00:54:42;;;;;;;1.40;0.70;;;8.70;99.60;;;;;;5027307;28;20167;-77
2022/01/04 00:57:07;;;;;;;1.90;0.80;;;8.70;99.60;;;;;;5010232;28;20486;-75
2022/01/04 00:59:33;;;;;;;2.00;0.67;;;8.70;99.60;;;;;;5012936;28;20191;-77
2022/01/04 01:01:59;;;;;;;1.13;0.77;;;8.80;99.60;;;;;;5030421;28;20227;-77
2022/01/04 01:04:24;;;;;;;1.53;0.90;;;8.70;99.40;;;;;;5015568;28;20596;-77
2022/01/04 01:06:50;;;;;;;3.17;0.67;;;8.70;99.40;;;;;;5015401;28;20202;-75
2022/01/04 01:09:16;;;;;;;1.40;0.70;;;8.70;99.60;;;;;;5029901;28;20226;-77
2022/01/04 01:11:41;;;;;;;2.00;0.97;;;8.70;99.70;;;;;;5015825;28;20159;-75
2022/01/04 01:14:07;;;;;;;1.23;0.70;;;8.60;99.60;;;;;;5015451;28;20254;-76
2022/01/04 01:16:33;;;;;;;1.10;0.80;;;8.60;99.80;;;;;;5013606;28;20202;-76
2022/01/04 01:18:59;;;;;;;2.00;0.60;;;8.60;99.80;;;;;;5014115;28;20457;-76
2022/01/04 01:21:24;;;;;;;1.57;1.03;;;8.60;99.90;;;;;;5017159;28;20167;-76
2022/01/04 01:23:50;;;;;;;3.47;1.17;;;8.50;99.90;;;;;;5015403;28;20186;-76
2022/01/04 01:26:16;;;;;;;2.47;0.97;;;8.50;99.90;;;;;;5031501;28;20588;-77
2022/01/04 01:28:41;;;;;;;1.83;0.97;;;8.60;99.90;;;;;;5016318;28;20194;-77
2022/01/04 01:31:08;;;;;;;2.07;1.37;;;8.60;99.90;;;;;;5016072;28;20194;-77
2022/01/04 01:33:34;;;;;;;2.20;0.90;;;8.60;99.90;;;;;;5014736;28;20183;-76
2022/01/04 01:36:00;;;;;;;2.10;0.97;;;8.60;99.90;;;;;;5015936;28;20409;-76
2022/01/04 01:38:26;;;;;;;2.10;1.10;;;8.60;99.90;;;;;;5015442;28;20472;-75
2022/01/04 01:40:52;;;;;;;3.10;1.00;;;8.60;99.90;;;;;;5013736;28;20405;-77
2022/01/04 01:43:19;;;;;;;2.10;1.10;;;8.50;99.90;;;;;;5015627;28;20254;-77
2022/01/04 01:45:45;;;;;;;2.23;1.00;;;8.50;99.90;;;;;;5030618;28;20416;-76
2022/01/04 01:48:12;;;;;;;2.20;1.23;;;8.50;99.90;;;;;;5016758;28;20740;-76
2022/01/04 01:50:38;;;;;;;1.73;0.93;;;8.50;99.90;;;;;;5016727;28;20542;-76
2022/01/04 01:53:04;;;;;;;2.20;1.13;;;8.40;99.90;;;;;;5017036;28;20760;-77
2022/01/04 01:55:31;;;;;;;3.33;1.40;;;8.40;99.90;;;;;;5017030;28;20402;-77
2022/01/04 01:57:57;;;;;;;1.40;0.70;;;8.40;99.90;;;;;;5015444;28;20227;-77
2022/01/04 02:00:26;;;;;;;1.97;1.30;;;8.40;99.90;;;;;;5016201;28;20412;-75
2022/01/04 02:02:52;;;;;;;2.33;1.10;;;8.40;99.90;;;;;;5021748;28;20520;-76
2022/01/04 02:05:18;;;;;;;3.20;1.10;;;8.40;99.90;;;;;;5020984;28;20406;-75
2022/01/04 02:07:44;;;;;;;1.53;0.93;;;8.40;99.90;;;;;;5021999;28;20869;-75
2022/01/04 02:10:11;;;;;;;2.50;0.90;;;8.40;99.90;;;;;;5022602;28;20406;-75
2022/01/04 02:12:46;;;;;;;1.70;1.00;;;8.40;99.90;;;;;;5019960;28;20432;-75
2022/01/04 02:15:15;;;;;;;3.20;1.30;;;8.40;99.90;;;;;;5021954;28;20410;-77
2022/01/04 02:17:41;;;;;;;1.83;0.80;;;8.40;99.90;;;;;;5022760;28;20430;-76
2022/01/04 02:20:07;;;;;;;1.90;1.07;;;8.40;99.90;;;;;;5040957;28;20421;-77
2022/01/04 02:22:34;;;;;;;4.03;1.00;;;8.40;99.90;;;;;;5018337;28;20422;-75
2022/01/04 02:25:00;;;;;;;1.23;0.83;;;8.40;99.90;;;;;;5012530;28;21006;-76
2022/01/04 02:27:26;;;;;;;1.20;0.80;;;8.40;99.90;;;;;;5029375;28;20469;-76
2022/01/04 02:29:51;;;;;;;4.50;1.17;;;8.40;99.90;;;;;;5013741;28;20790;-78
2022/01/04 02:32:17;;;;;;;1.73;1.00;;;8.40;99.90;;;;;;5030023;28;20167;-77
2022/01/04 02:34:51;;;;;;;2.17;1.07;;;8.40;99.90;;;;;;5030128;28;20513;-77
2022/01/04 02:37:25;;;;;;;2.27;1.00;;;8.40;99.90;;;;;;5017275;28;20159;-77
2022/01/04 02:39:52;;;;;;;2.20;1.17;;;8.40;99.90;;;;;;5020671;28;20727;-76
2022/01/04 02:42:18;;;;;;;1.83;0.90;;;8.40;99.90;;;;;;5022371;28;20426;-76
2022/01/04 02:44:44;;;;;;;2.13;1.00;;;8.40;99.90;;;;;;5016086;28;20940;-76
2022/01/04 02:47:11;;;;;;;1.70;1.03;;;8.40;99.90;;;;;;5028193;28;20507;-76
2022/01/04 02:49:37;;;;;;;1.37;0.93;;;8.50;99.90;;;;;;5016699;28;20955;-76
2022/01/04 02:52:03;;;;;;;2.40;0.87;;;8.40;99.90;;;;;;5018023;28;20713;-76
2022/01/04 02:54:29;;;;;;;1.70;1.03;;;8.50;99.90;;;;;;5018874;28;20167;-76
2022/01/04 02:56:54;;;;;;;2.67;1.30;;;8.40;99.90;;;;;;5017898;28;20414;-77
2022/01/04 02:59:20;;;;;;;2.40;0.87;;;8.50;99.90;;;;;;5013667;28;20206;-75
2022/01/04 03:01:46;;;;;;;2.90;1.00;;;8.40;99.90;;;;;;5013370;28;20279;-75
2022/01/04 03:04:12;;;;;;;3.03;1.10;;;8.50;99.90;;;;;;5013812;28;20649;-77
2022/01/04 03:06:37;;;;;;;3.37;1.40;;;8.50;99.90;;;;;;5028271;28;20195;-77
2022/01/04 03:09:05;;;;;;;1.93;0.93;;;8.50;99.90;;;;;;5013474;28;20190;-77
2022/01/04 03:11:32;;;;;;;2.70;1.53;;;8.50;99.90;;;;;;5028748;28;20178;-76
2022/01/04 03:13:58;;;;;;;1.73;1.00;;;8.50;99.90;;;;;;5012025;28;20537;-76
2022/01/04 03:16:24;;;;;;;1.63;0.90;;;8.50;99.90;;;;;;5013491;28;20460;-76
2022/01/04 03:19:03;;;;;;;4.03;1.13;;;8.50;99.90;;;;;;5013183;28;20951;-76
2022/01/04 03:21:30;;;;;;;1.03;0.73;;;8.50;99.90;;;;;;5027997;28;20163;-76
2022/01/04 03:23:56;;;;;;;1.57;0.83;;;8.50;99.90;;;;;;5012375;28;20494;-76
2022/01/04 03:26:22;;;;;;;2.00;0.70;;;8.40;99.90;;;;;;5012688;28;20461;-75
2022/01/04 03:28:47;;;;;;;2.73;1.00;;;8.40;99.90;;;;;;5013055;28;20492;-75
2022/01/04 03:31:13;;;;;;;2.30;0.60;;;8.40;99.90;;;;;;5015025;28;20179;-76
2022/01/04 03:33:39;;;;;;;1.90;0.83;;;8.40;99.90;;;;;;5012450;28;20198;-77
2022/01/04 03:36:05;;;;;;;1.00;0.60;;;8.30;99.90;;;;;;5010671;28;20618;-77
2022/01/04 03:38:31;;;;;;;1.87;0.90;;;8.30;99.90;;;;;;5012708;28;20557;-77
2022/01/04 03:40:57;;;;;;;2.23;1.10;;;8.30;99.90;;;;;;5028323;28;20422;-76
2022/01/04 03:43:22;;;;;;;1.40;1.10;;;8.30;99.90;;;;;;5028154;28;20417;-77
2022/01/04 03:45:49;;;;;;;3.57;0.90;;;8.30;99.90;;;;;;5012180;28;20228;-76
2022/01/04 03:48:15;;;;;;;1.23;0.87;;;8.20;99.90;;;;;;5012689;28;20765;-75
2022/01/04 03:50:42;;;;;;;2.33;1.10;;;8.20;99.90;;;;;;5013163;28;20429;-76
2022/01/04 03:53:08;;;;;;;1.20;0.70;;;8.20;99.90;;;;;;5027355;28;20509;-75
2022/01/04 03:55:34;;;;;;;2.37;0.80;;;8.20;99.90;;;;;;5012865;28;20430;-77
2022/01/04 03:58:00;;;;;;;2.43;0.90;;;8.20;99.90;;;;;;5013448;28;20436;-75
2022/01/04 04:00:26;;;;;;;3.80;1.23;;;8.10;99.90;;;;;;5012024;28;20410;-75
2022/01/04 04:02:51;;;;;;;1.30;0.93;;;8.20;99.90;;;;;;5027827;28;20213;-76
2022/01/04 04:05:18;;;;;;;1.20;0.70;;;8.20;99.90;;;;;;5011567;28;20425;-76
2022/01/04 04:07:43;;;;;;;1.73;0.90;;;8.20;99.90;;;;;;5012224;28;20202;-76
2022/01/04 04:10:09;;;;;;;1.30;0.83;;;8.20;99.90;;;;;;5012837;28;20426;-76
2022/01/04 04:12:36;;;;;;;5.67;0.70;;;8.20;99.90;;;;;;5012846;28;20237;-76
2022/01/04 04:15:05;;;;;;;1.63;1.00;;;8.30;99.90;;;;;;5012385;28;20414;-76
2022/01/04 04:17:31;;;;;;;1.60;0.90;;;8.20;99.90;;;;;;5031432;28;20429;-77
2022/01/04 04:19:57;;;;;;;1.70;0.87;;;8.20;99.90;;;;;;5015128;28;20504;-77
2022/01/04 04:22:22;;;;;;;3.73;0.90;;;8.20;99.90;;;;;;5014592;28;20854;-77
2022/01/04 04:24:48;;;;;;;2.67;0.87;;;8.20;99.90;;;;;;5013909;28;20579;-77
2022/01/04 04:27:14;;;;;;;1.87;0.97;;;8.20;99.90;;;;;;5012807;28;20233;-77
2022/01/04 04:29:41;;;;;;;3.07;0.80;;;8.20;99.90;;;;;;5012983;28;20241;-77
2022/01/04 04:32:07;;;;;;;2.50;1.27;;;8.20;99.90;;;;;;5012712;28;20403;-76
2022/01/04 04:34:34;;;;;;;1.60;0.80;;;8.20;99.90;;;;;;5013097;28;20413;-76
2022/01/04 04:37:00;;;;;;;1.87;0.80;;;8.20;99.90;;;;;;5016399;28;20481;-76
2022/01/04 04:39:25;;;;;;;3.00;1.00;;;8.30;99.90;;;;;;5016126;28;20559;-76
2022/01/04 04:41:52;;;;;;;1.10;0.70;;;8.30;99.90;;;;;;5015755;28;20902;-75
2022/01/04 04:44:18;;;;;;;1.50;0.73;;;8.30;99.90;;;;;;5016317;28;20183;-77
2022/01/04 04:46:44;;;;;;;2.63;1.00;;;8.30;99.90;;;;;;5015056;28;20648;-76
2022/01/04 04:49:10;;;;;;;2.33;1.10;;;8.20;99.90;;;;;;5031108;28;20437;-75
2022/01/04 04:51:36;;;;;;;2.80;0.67;;;8.30;99.90;;;;;;5015947;28;20552;-76
2022/01/04 04:54:03;;;;;;;1.23;0.70;;;8.30;99.90;;;;;;5016117;28;20441;-75
2022/01/04 04:56:28;;;;;;;2.33;0.80;;;8.30;99.90;;;;;;5015995;28;20418;-76
2022/01/04 04:58:54;;;;;;;1.30;0.80;;;8.20;99.90;;;;;;5014265;28;20515;-74
2022/01/04 05:01:20;;;;;;;1.00;0.60;;;8.20;99.90;;;;;;5031693;28;20217;-77
2022/01/04 05:03:45;;;;;;;2.30;1.43;;;8.20;99.90;;;;;;5032175;28;20198;-75
2022/01/04 05:06:11;;;;;;;1.70;1.00;;;8.20;99.90;;;;;;5017973;28;20186;-77
2022/01/04 05:08:37;;;;;;;2.60;0.77;;;8.20;99.90;;;;;;5024678;28;20170;-76
2022/01/04 05:11:03;;;;;;;1.40;0.70;;;8.20;99.90;;;;;;5014483;28;20171;-77
2022/01/04 05:13:29;;;;;;;1.10;0.70;;;8.10;99.90;;;;;;5016081;28;20219;-77
2022/01/04 05:15:55;;;;;;;3.17;0.80;;;8.10;99.90;;;;;;5014477;28;20194;-78
2022/01/04 05:18:21;;;;;;;3.20;1.20;;;8.10;99.90;;;;;;5016085;28;20529;-75
2022/01/04 05:20:47;;;;;;;2.50;1.97;;;8.10;99.90;;;;;;5016253;28;20175;-75
2022/01/04 05:23:12;;;;;;;2.13;0.90;;;8.10;99.90;;;;;;5015962;28;20163;-77
2022/01/04 05:25:38;;;;;;;1.50;1.20;;;8.20;99.90;;;;;;5022131;28;20234;-77
2022/01/04 05:28:04;;;;;;;3.00;1.90;;;8.20;99.90;;;;;;5018145;28;20202;-78
2022/01/04 05:30:30;;;;;;;4.20;2.73;;;8.20;99.90;;;;;;5015154;28;20460;-77
2022/01/04 05:32:55;;;;;;;3.30;2.20;;;8.30;99.90;;;;;;5015543;28;20171;-76
2022/01/04 05:35:21;;;;;;;3.70;2.90;;;8.30;99.90;;;;;;5015101;28;20276;-75
2022/01/04 05:37:47;;;;;;;4.97;2.67;;;8.30;99.90;;;;;;5014742;28;20191;-77
2022/01/04 05:40:12;;;;;;;5.37;2.90;;;8.30;99.90;;;;;;5015196;28;20151;-77
2022/01/04 05:42:38;;;;;;;5.60;3.37;;;8.30;99.90;;;;;;5015184;28;20245;-77
2022/01/04 05:45:05;;;;;;;5.33;2.53;;;8.30;99.90;;;;;;5013261;28;20186;-78
2022/01/04 05:47:30;;;;;;;4.97;3.00;;;8.20;99.90;;;;;;5014120;28;20202;-76
2022/01/04 05:49:56;;;;;;;3.93;2.60;;;8.20;99.90;;;;;;5015233;28;20410;-77
2022/01/04 05:52:22;;;;;;;5.27;3.70;;;8.20;99.90;;;;;;5015527;28;20168;-77
2022/01/04 05:54:49;;;;;;;3.47;2.40;;;8.20;99.90;;;;;;5019334;28;20155;-75
2022/01/04 05:57:16;;;;;;;3.67;2.30;;;8.30;99.90;;;;;;5022530;28;20190;-76
2022/01/04 05:59:42;;;;;;;2.63;2.00;;;8.30;99.90;;;;;;5021859;28;20440;-75
2022/01/04 06:02:08;;;;;;;2.80;1.90;;;8.30;99.90;;;;;;5015547;28;20426;-77
2022/01/04 06:04:33;;;;;;;3.50;2.13;;;8.20;99.90;;;;;;5014879;28;20231;-76
2022/01/04 06:06:59;;;;;;;7.50;4.77;;;8.10;99.90;;;;;;5029991;28;20640;-76
2022/01/04 06:09:29;;;;;;;3.40;2.00;;;8.10;99.90;;;;;;5014030;28;20187;-76
2022/01/04 06:11:59;;;;;;;1.90;1.70;;;8.10;99.90;;;;;;5014726;28;20216;-75
2022/01/04 06:17:10;;;;;;;2.23;1.53;;;8.10;99.90;;;;;;5014207;28;20406;-77
2022/01/04 06:19:39;;;;;;;2.70;1.90;;;8.10;99.90;;;;;;5014464;28;20454;-75
2022/01/04 06:22:05;;;;;;;3.33;2.00;;;8.00;99.90;;;;;;5029509;28;20414;-77
2022/01/04 06:24:31;;;;;;;6.90;2.73;;;8.10;99.90;;;;;;5014085;28;20429;-77
2022/01/04 06:26:57;;;;;;;3.07;2.43;;;8.10;99.90;;;;;;5013407;28;20434;-76
2022/01/04 06:29:23;;;;;;;4.70;2.53;;;8.10;99.90;;;;;;5029941;28;20188;-75
2022/01/04 06:31:49;;;;;;;3.33;2.50;;;8.10;99.90;;;;;;5012717;28;20581;-76
2022/01/04 06:34:15;;;;;;;3.80;2.20;;;8.10;99.90;;;;;;5029700;28;20402;-76
2022/01/04 06:36:40;;;;;;;4.40;2.53;;;8.10;99.90;;;;;;5013832;28;20737;-76
2022/01/04 06:39:06;;;;;;;2.43;1.97;;;8.20;99.90;;;;;;5011985;28;20537;-77
2022/01/04 06:41:32;;;;;;;3.20;2.03;;;8.20;99.90;;;;;;5011711;28;20160;-77
2022/01/04 06:43:58;;;;;;;4.60;2.10;;;8.10;99.90;;;;;;5014520;28;20183;-75
2022/01/04 06:46:25;;;;;;;2.63;2.30;;;8.10;99.90;;;;;;5014303;28;20470;-77
2022/01/04 06:48:51;;;;;;;2.40;2.10;;;8.10;99.90;;;;;;5013809;28;20270;-76
2022/01/04 06:51:17;;;;;;;4.50;1.97;;;8.10;99.90;;;;;;5015103;28;20394;-76
2022/01/04 06:53:44;;;;;;;2.60;1.90;;;8.20;99.90;;;;;;5019354;28;20745;-76
2022/01/04 06:56:10;;;;;;;4.40;1.93;;;8.20;99.90;;;;;;5031939;28;20417;-76
2022/01/04 06:58:36;;;;;;;4.70;2.20;;;8.20;99.90;;;;;;5013765;28;20434;-77
2022/01/04 07:01:02;;;;;;;5.53;1.90;;;8.20;99.90;;;;;;5013855;28;20338;-77
2022/01/04 07:03:27;;;;;;;2.60;2.17;;;8.20;99.90;;;;;;5014082;28;20668;-77
2022/01/04 07:05:53;;;;;;;4.03;1.97;;;8.20;99.90;;;;;;5013546;28;20406;-77
2022/01/04 07:08:18;;;;;;;3.80;2.00;;;8.20;99.90;;;;;;5012097;28;20187;-77
2022/01/04 07:10:44;;;;;;;3.77;2.33;;;8.20;99.90;;;;;;5013912;28;20190;-77
2022/01/04 07:13:10;;;;;;;2.70;2.10;;;8.10;99.90;;;;;;5011839;28;20167;-75
2022/01/04 07:15:36;;;;;;;4.50;2.60;;;8.10;99.90;;;;;;5014337;28;20185;-76
2022/01/04 07:18:02;;;;;;;3.67;2.17;;;8.10;99.90;;;;;;5014315;28;20342;-76
2022/01/04 07:20:28;;;;;;;4.23;3.27;;;8.10;99.90;;;;;;5013171;28;20264;-77
2022/01/04 07:22:53;;;;;;;4.23;3.20;;;8.10;99.90;;;;;;5018718;28;20539;-77
2022/01/04 07:25:19;;;;;;;3.87;2.77;;;8.10;99.90;;;;;;5017983;28;20422;-77
2022/01/04 07:27:45;;;;;;;5.37;3.63;;;8.10;99.90;;;;;;5036075;28;20764;-75
2022/01/04 07:30:11;;;;;;;6.57;4.10;;;8.00;99.90;;;;;;5014500;28;20159;-76
2022/01/04 07:32:37;;;;;;;6.30;3.63;;;8.00;99.90;;;;;;5013911;28;20169;-76
2022/01/04 07:35:03;;;;;;;5.70;4.60;;;8.10;99.90;;;;;;5013238;28;20489;-78
2022/01/04 07:37:29;;;;;;;8.00;4.80;;;8.10;99.90;;;;;;5012357;28;20465;-77
2022/01/04 07:39:54;;;;;;;7.27;4.30;;;8.20;99.90;;;;;;5013742;28;20406;-78
2022/01/04 07:42:20;;;;;;;7.10;4.10;;;8.20;99.90;;;;;;5012248;28;20183;-76
2022/01/04 07:44:47;;;;;;;11.10;7.90;;;8.20;99.90;;;;;;5012290;28;20656;-76
2022/01/04 07:47:13;;;;;;;12.50;7.50;;;8.30;99.90;;;;;;5021469;28;20540;-77
2022/01/04 07:49:38;;;;;;;7.07;5.30;;;8.30;99.90;;;;;;5015609;28;20191;-75
2022/01/04 07:52:04;;;;;;;6.30;4.03;;;8.30;99.90;;;;;;5011555;28;20164;-77
2022/01/04 07:54:30;;;;;;;7.13;4.00;;;8.30;99.90;;;;;;5029210;28;20171;-77
2022/01/04 07:56:56;;;;;;;4.27;2.43;;;8.30;99.90;;;;;;5016632;28;20432;-76
2022/01/04 07:59:21;;;;;;;4.00;2.40;;;8.40;99.90;;;;;;5031447;28;20575;-76
2022/01/04 08:01:47;;;;;;;3.80;2.40;;;8.30;99.90;;;;;;5032373;28;20220;-76
2022/01/04 08:04:13;;;;;;;3.20;2.23;;;8.30;99.90;;;;;;5032363;28;20175;-76
2022/01/04 08:06:39;;;;;;;3.70;2.63;;;8.30;99.90;;;;;;5031828;28;20215;-78
2022/01/04 08:09:05;;;;;;;3.20;2.20;;;8.30;99.90;;;;;;5032189;28;20201;-76
2022/01/04 08:11:31;;;;;;;6.50;2.73;;;8.30;99.90;;;;;;5038956;28;20782;-76
2022/01/04 08:13:56;;;;;;;4.43;2.30;;;8.30;99.90;;;;;;5035187;28;20174;-77
2022/01/04 08:16:22;;;;;;;2.93;2.20;;;8.30;99.90;;;;;;5051336;28;20167;-77
2022/01/04 08:18:48;;;;;;;3.90;2.67;;;8.30;99.90;;;;;;5033555;28;20252;-77
2022/01/04 08:21:14;;;;;;;4.23;3.03;;;8.30;99.90;;;;;;5037474;28;20171;-76
2022/01/04 08:23:39;;;;;;;6.63;4.00;;;8.30;99.90;;;;;;5019069;28;20422;-76
2022/01/04 08:26:05;;;;;;;12.10;3.60;;;8.30;99.90;;;;;;5017411;28;20219;-77
2022/01/04 08:28:31;;;;;;;4.90;3.30;;;8.40;99.90;;;;;;5017810;28;20242;-76
2022/01/04 08:30:57;;;;;;;8.37;4.90;;;8.30;99.90;;;;;;5017152;28;20414;-76
2022/01/04 08:33:23;;;;;;;9.70;5.10;;;8.30;99.90;;;;;;5017259;28;20245;-77
2022/01/04 08:35:49;;;;;;;5.43;3.93;;;8.30;99.90;;;;;;5015623;28;20263;-77
2022/01/04 08:38:15;;;;;;;8.70;4.63;;;8.20;99.90;;;;;;5029704;28;21044;-76
2022/01/04 08:40:40;;;;;;;7.00;4.77;;;8.20;99.90;;;;;;5018256;28;20171;-76
2022/01/04 08:43:06;;;;;;;9.77;5.33;;;8.20;99.90;;;;;;5015404;28;20175;-75
2022/01/04 08:45:33;;;;;;;10.63;5.87;;;8.20;99.90;;;;;;5016387;28;20218;-76
2022/01/04 08:47:59;;;;;;;59.20;33.57;;;8.20;99.90;;;;;;5016192;28;20194;-77
2022/01/04 08:50:27;;;;;;;11.33;5.57;;;8.20;99.90;;;;;;5016372;28;20421;-77
2022/01/04 08:52:54;;;;;;;9.50;5.80;;;8.20;99.90;;;;;;5031875;28;20424;-76
2022/01/04 08:55:21;;;;;;;9.07;5.27;;;8.20;99.90;;;;;;5016432;28;20903;-77
2022/01/04 08:57:46;;;;;;;8.90;6.20;;;8.10;99.90;;;;;;5017358;28;20469;-76
2022/01/04 09:00:13;;;;;;;10.97;6.77;;;8.10;99.90;;;;;;5015731;28;20757;-77
2022/01/04 09:02:40;;;;;;;14.30;7.30;;;8.10;99.90;;;;;;5018087;28;20263;-76
2022/01/04 09:05:06;;;;;;;13.07;7.20;;;8.10;99.90;;;;;;5016055;28;20426;-78
2022/01/04 09:07:32;;;;;;;9.27;6.70;;;8.20;99.90;;;;;;5018125;28;20460;-74
2022/01/04 09:09:58;;;;;;;10.23;5.87;;;8.20;99.90;;;;;;5020156;28;20402;-78
2022/01/04 09:12:38;;;;;;;7.47;5.33;;;8.30;99.90;;;;;;5025953;28;20190;-75
2022/01/04 09:15:27;;;;;;;7.20;5.03;;;8.40;99.90;;;;;;5043371;28;20555;-76
2022/01/04 09:20:34;;;;;;;4.20;3.30;;;8.40;99.90;;;;;;5015592;28;20583;-76
2022/01/04 09:23:00;;;;;;;4.90;4.40;;;8.40;99.90;;;;;;5008613;28;20460;-77
2022/01/04 09:25:25;;;;;;;7.63;4.57;;;8.50;99.90;;;;;;5014669;28;20541;-77
2022/01/04 09:27:52;;;;;;;20.47;12.33;;;8.50;99.90;;;;;;5023991;28;20209;-75
2022/01/04 09:30:18;;;;;;;10.50;6.27;;;8.60;99.90;;;;;;5030478;28;20179;-76
2022/01/04 09:32:44;;;;;;;6.13;4.50;;;8.60;99.90;;;;;;5036254;28;20429;-76
2022/01/04 09:35:12;;;;;;;5.40;3.67;;;8.60;99.90;;;;;;5021724;28;20625;-74
2022/01/04 09:37:38;;;;;;;7.70;4.40;;;8.70;99.90;;;;;;5017944;28;20250;-75
2022/01/04 09:40:04;;;;;;;6.60;4.53;;;8.70;99.90;;;;;;5016190;28;20520;-76
2022/01/04 09:42:31;;;;;;;6.27;4.00;;;8.80;99.90;;;;;;5029368;28;20469;-74
2022/01/04 09:44:57;;;;;;;6.87;4.87;;;8.70;99.90;;;;;;5016042;28;20434;-76
2022/01/04 09:47:24;;;;;;;6.93;4.80;;;8.70;99.90;;;;;;5013228;28;20933;-75
2022/01/04 09:49:50;;;;;;;7.90;5.63;;;8.70;99.90;;;;;;5014734;28;20186;-76
2022/01/04 09:52:21;;;;;;;5.60;3.20;;;8.70;99.90;;;;;;5033812;28;20418;-76
2022/01/04 09:54:51;;;;;;;7.33;4.77;;;8.60;99.90;;;;;;5019009;28;20414;-77
2022/01/04 09:57:17;;;;;;;7.10;4.30;;;8.60;99.90;;;;;;5018473;28;20961;-76
2022/01/04 09:59:43;;;;;;;8.20;4.87;;;8.50;99.90;;;;;;5028639;28;20454;-75
2022/01/04 10:02:20;;;;;;;6.60;4.60;;;8.60;99.90;;;;;;5034145;28;20422;-76
2022/01/04 10:04:46;;;;;;;8.97;5.00;;;8.60;99.90;;;;;;5011489;28;20185;-74
2022/01/04 10:07:12;;;;;;;8.07;4.87;;;8.60;99.90;;;;;;5020467;28;20454;-76
2022/01/04 10:09:44;;;;;;;7.60;5.03;;;8.60;99.90;;;;;;4998818;28;20431;-75
2022/01/04 10:12:17;;;;;;;5.40;4.07;;;8.70;99.90;;;;;;4998297;28;20447;-76
2022/01/04 10:14:49;;;;;;;5.53;3.90;;;8.70;99.90;;;;;;5021187;28;20713;-75
2022/01/04 10:17:20;;;;;;;6.00;3.50;;;8.70;99.90;;;;;;5018559;28;20483;-76
2022/01/04 10:19:49;;;;;;;8.93;3.20;;;8.70;99.90;;;;;;5026426;28;20497;-74
2022/01/04 10:22:18;;;;;;;6.70;3.70;;;8.70;99.90;;;;;;5038901;28;20418;-75
2022/01/04 10:24:49;;;;;;;5.23;3.67;;;8.70;99.90;;;;;;5024245;28;20430;-75
2022/01/04 10:27:24;;;;;;;53.43;34.23;;;8.70;99.90;;;;;;5018654;28;20449;-74
2022/01/04 10:30:07;;;;;;;10.60;5.47;;;8.80;99.90;;;;;;5029228;28;20487;-76
2022/01/04 10:32:52;;;;;;;4.10;3.40;;;8.80;99.90;;;;;;5020868;28;20491;-75
2022/01/04 10:35:23;;;;;;;5.40;3.37;;;8.80;99.90;;;;;;5019776;28;20427;-75
2022/01/04 10:37:50;;;;;;;3.70;2.50;;;8.80;99.90;;;;;;5033397;28;20456;-77
2022/01/04 10:40:16;;;;;;;7.13;3.30;;;8.80;99.90;;;;;;5020534;28;20456;-75
2022/01/04 10:42:42;;;;;;;6.20;3.40;;;8.70;99.90;;;;;;5031337;28;20445;-75
2022/01/04 10:45:29;;;;;;;5.83;2.90;;;8.70;99.90;;;;;;5031697;28;20420;-75
2022/01/04 10:48:09;;;;;;;6.07;3.47;;;8.60;99.90;;;;;;5021105;28;20462;-76
2022/01/04 10:50:36;;;;;;;6.50;3.40;;;8.60;99.90;;;;;;5014050;28;20421;-74
2022/01/04 10:53:03;;;;;;;5.23;2.60;;;8.60;99.90;;;;;;5019559;28;20499;-77
2022/01/04 10:55:34;;;;;;;4.17;2.50;;;8.60;99.90;;;;;;5017222;28;20425;-75
2022/01/04 10:58:02;;;;;;;5.63;3.40;;;8.60;99.90;;;;;;5015782;28;20434;-76
2022/01/04 11:00:28;;;;;;;6.70;3.00;;;8.60;99.90;;;;;;5015978;28;20425;-77
2022/01/04 11:02:54;;;;;;;3.43;1.77;;;8.60;99.90;;;;;;5015019;28;20432;-76
2022/01/04 11:05:21;;;;;;;3.90;2.23;;;8.60;99.90;;;;;;5025017;28;20437;-76
2022/01/04 11:08:04;;;;;;;3.60;2.20;;;8.60;99.90;;;;;;5020263;28;20314;-77
2022/01/04 11:10:34;;;;;;;7.13;2.60;;;8.60;99.90;;;;;;5013158;28;20395;-75
2022/01/04 11:13:00;;;;;;;5.60;2.40;;;8.60;99.90;;;;;;5025281;28;20466;-76
2022/01/04 11:15:27;;;;;;;3.67;2.73;;;8.50;99.90;;;;;;5020732;28;20418;-76
2022/01/04 11:17:53;;;;;;;4.60;2.87;;;8.50;99.90;;;;;;5019641;28;20434;-75
2022/01/04 11:20:20;;;;;;;5.07;3.80;;;8.50;99.90;;;;;;5035349;28;20922;-75
2022/01/04 11:22:47;;;;;;;3.57;1.60;;;8.50;99.90;;;;;;5041175;28;20421;-76
2022/01/04 11:25:16;;;;;;;5.93;2.60;;;8.50;99.90;;;;;;5032754;28;20441;-76
2022/01/04 11:27:42;;;;;;;3.00;2.03;;;8.50;99.90;;;;;;5035651;28;20492;-75
2022/01/04 11:30:28;;;;;;;4.40;2.60;;;8.50;99.90;;;;;;5039021;28;20425;-76
2022/01/04 11:33:03;;;;;;;2.70;1.90;;;8.50;99.90;;;;;;4987137;28;20859;-75
2022/01/04 11:35:31;;;;;;;5.23;3.07;;;8.50;99.90;;;;;;5036553;28;20416;-75
2022/01/04 11:37:58;;;;;;;4.60;2.57;;;8.40;99.90;;;;;;5022413;28;20465;-76
2022/01/04 11:40:25;;;;;;;4.17;2.00;;;8.50;99.90;;;;;;5015570;28;20456;-75
2022/01/04 11:42:53;;;;;;;1.97;1.33;;;8.50;99.90;;;;;;5017619;28;20760;-76
2022/01/04 11:45:42;;;;;;;3.50;1.70;;;8.50;99.90;;;;;;5016583;28;20425;-75
2022/01/04 11:48:28;;;;;;;8.03;2.50;;;8.60;99.90;;;;;;5016083;28;21006;-75
2022/01/04 11:50:57;;;;;;;7.10;1.90;;;8.60;99.90;;;;;;5019496;28;20444;-75
2022/01/04 11:53:23;;;;;;;2.30;1.57;;;8.60;99.90;;;;;;5017877;28;20969;-75
2022/01/04 11:55:54;;;;;;;3.77;2.10;;;8.60;99.90;;;;;;5017945;28;20474;-77
2022/01/04 11:58:24;;;;;;;5.80;2.13;;;8.60;99.90;;;;;;5015650;28;20749;-74
2022/01/04 12:01:02;;;;;;;4.70;1.93;;;8.60;99.90;;;;;;5015286;28;20512;-73
2022/01/04 12:03:42;;;;;;;4.50;2.03;;;8.60;99.90;;;;;;5029628;28;20444;-73
2022/01/04 12:06:09;;;;;;;4.17;1.90;;;8.60;99.90;;;;;;5014777;28;20489;-74
2022/01/04 12:08:54;;;;;;;2.30;1.80;;;8.60;99.90;;;;;;5022826;28;20441;-75
2022/01/04 12:11:21;;;;;;;63.67;42.30;;;8.60;99.90;;;;;;5021690;28;20439;-74
2022/01/04 12:13:54;;;;;;;15.23;7.90;;;8.70;99.90;;;;;;5012830;28;20710;-74
2022/01/04 12:16:35;;;;;;;5.37;2.77;;;8.80;99.90;;;;;;5012546;28;20958;-75
2022/01/04 12:19:03;;;;;;;7.07;2.27;;;8.90;99.90;;;;;;5016688;28;20823;-75
2022/01/04 12:21:35;;;;;;;3.67;2.33;;;8.90;99.50;;;;;;5022415;28;20444;-73
2022/01/04 12:24:03;;;;;;;6.47;2.83;;;8.90;99.90;;;;;;5021450;28;20834;-75
2022/01/04 12:26:34;;;;;;;7.73;3.50;;;8.90;99.80;;;;;;5017486;28;20476;-74
2022/01/04 12:29:02;;;;;;;3.50;2.83;;;8.90;99.60;;;;;;5036465;28;20452;-74
2022/01/04 12:32:02;;;;;;;6.73;4.20;;;8.90;99.50;;;;;;5028808;28;20429;-75
2022/01/04 12:34:49;;;;;;;4.30;2.23;;;8.90;99.90;;;;;;5017626;28;20510;-74
2022/01/04 12:37:18;;;;;;;8.30;3.30;;;8.90;99.50;;;;;;5018362;28;20857;-76
2022/01/04 12:39:45;;;;;;;6.73;2.97;;;9.00;99.90;;;;;;5032010;28;20442;-77
2022/01/04 12:42:15;;;;;;;7.43;3.10;;;9.10;99.50;;;;;;5017235;28;20410;-73
2022/01/04 12:44:40;;;;;;;8.13;4.00;;;9.10;99.30;;;;;;5017269;28;20410;-75
2022/01/04 12:47:08;;;;;;;7.87;4.00;;;9.20;99.40;;;;;;5018467;28;20554;-73
2022/01/04 12:49:37;;;;;;;7.73;5.07;;;9.30;99.20;;;;;;5032824;28;20198;-76
2022/01/04 12:52:08;;;;;;;4.30;3.33;;;9.20;99.10;;;;;;5019927;28;20924;-74
2022/01/04 12:54:41;;;;;;;97.23;40.93;;;9.30;99.40;;;;;;5020139;28;20496;-75
2022/01/04 12:57:11;;;;;;;10.20;5.07;;;9.30;99.40;;;;;;5042345;28;20437;-77
2022/01/04 12:59:43;;;;;;;8.03;4.10;;;9.30;98.80;;;;;;5033488;28;20479;-75
2022/01/04 13:02:19;;;;;;;8.23;5.00;;;9.30;98.30;;;;;;5038724;28;20428;-77
2022/01/04 13:04:48;;;;;;;4.87;3.60;;;9.20;98.90;;;;;;5031430;28;20441;-75